createdAt,value
2019-02-09T00:00:01.174Z,99517.56
2019-02-09T00:02:31.565Z,99507.66
2019-02-09T00:05:01.684Z,99501.25
2019-02-09T00:07:31.815Z,99496.14
2019-02-09T00:12:32.387Z,99485.91
2019-02-09T00:15:02.530Z,99489.48
2019-02-09T00:17:32.662Z,99483.89
2019-02-09T00:20:02.767Z,99480.77
2019-02-09T00:22:32.880Z,99476.13
2019-02-09T00:25:02.974Z,99473.56
2019-02-09T00:27:33.169Z,99464.38
2019-02-09T00:30:03.266Z,99466.35
2019-02-09T00:32:33.546Z,99459.35
2019-02-09T00:35:03.755Z,99452.43
2019-02-09T00:37:33.890Z,99443.24
2019-02-09T00:40:04.810Z,99436.55
2019-02-09T00:42:34.909Z,99441.73
2019-02-09T00:45:06.555Z,99429.69
2019-02-09T00:47:36.646Z,99424.09
2019-02-09T00:50:07.809Z,99422.58
2019-02-09T00:52:37.911Z,99419.08
2019-02-09T00:55:08.943Z,99404.20
2019-02-09T00:57:39.048Z,99404.00
2019-02-09T01:00:14.122Z,99408.08
2019-02-09T01:02:44.219Z,99395.00
2019-02-09T01:05:15.505Z,99391.12
2019-02-09T01:07:45.611Z,99384.20
2019-02-09T01:10:15.842Z,99375.20
2019-02-09T01:12:45.953Z,99374.63
2019-02-09T01:15:16.508Z,99363.82
2019-02-09T01:17:46.627Z,99361.26
2019-02-09T01:20:20.012Z,99358.98
2019-02-09T01:22:50.149Z,99354.16
2019-02-09T01:25:20.270Z,99351.20
2019-02-09T01:27:50.386Z,99344.39
2019-02-09T01:30:23.258Z,99336.52
2019-02-09T01:32:53.374Z,99333.47
2019-02-09T01:35:23.790Z,99331.30
2019-02-09T01:37:54.000Z,99329.11
2019-02-09T01:40:25.475Z,99328.37
2019-02-09T01:42:55.802Z,99320.20
2019-02-09T01:45:30.436Z,99312.45
2019-02-09T01:48:01.034Z,99308.36
2019-02-09T01:50:31.973Z,99304.48
2019-02-09T01:53:02.374Z,99298.31
2019-02-09T01:55:32.494Z,99302.39
2019-02-09T01:58:02.632Z,99296.53
2019-02-09T02:00:34.227Z,99285.31
2019-02-09T02:03:04.756Z,99285.14
2019-02-09T02:05:34.870Z,99280.20
2019-02-09T02:08:05.394Z,99277.53
2019-02-09T02:10:37.844Z,99275.84
2019-02-09T02:13:09.460Z,99265.62
2019-02-09T02:15:40.507Z,99263.52
2019-02-09T02:18:11.119Z,99261.55
2019-02-09T02:20:41.250Z,99257.08
2019-02-09T02:23:11.402Z,99249.32
2019-02-09T02:25:41.530Z,99252.05
2019-02-09T02:28:11.633Z,99248.75
2019-02-09T02:30:41.727Z,99255.71
2019-02-09T02:33:13.656Z,99250.61
2019-02-09T02:35:43.782Z,99244.74
2019-02-09T02:38:13.951Z,99241.90
2019-02-09T02:40:44.424Z,99238.23
2019-02-09T02:43:14.559Z,99241.31
2019-02-09T02:45:44.668Z,99233.31
2019-02-09T02:48:14.774Z,99231.81
2019-02-09T02:50:44.872Z,99240.84
2019-02-09T02:53:16.519Z,99233.72
2019-02-09T02:55:46.868Z,99219.22
2019-02-09T02:58:17.944Z,99214.97
2019-02-09T03:00:48.056Z,99212.78
2019-02-09T03:03:18.150Z,99207.58
2019-02-09T03:05:48.278Z,99201.31
2019-02-09T03:08:18.413Z,99200.05
2019-02-09T03:10:48.533Z,99196.45
2019-02-09T03:13:18.632Z,99192.16
2019-02-09T03:15:48.950Z,99194.23
2019-02-09T03:18:19.067Z,99192.27
2019-02-09T03:20:49.187Z,99190.05
2019-02-09T03:23:19.294Z,99183.78
2019-02-09T03:25:50.847Z,99176.30
2019-02-09T03:28:20.962Z,99165.77
2019-02-09T03:30:52.038Z,99172.41
2019-02-09T03:33:22.161Z,99160.83
2019-02-09T03:35:52.252Z,99154.09
2019-02-09T03:38:22.372Z,99154.03
2019-02-09T03:40:52.459Z,99142.34
2019-02-09T03:43:22.587Z,99141.29
2019-02-09T03:45:52.681Z,99138.59
2019-02-09T03:48:22.808Z,99132.73
2019-02-09T03:50:52.902Z,99136.30
2019-02-09T03:53:23.031Z,99133.28
2019-02-09T03:55:53.128Z,99122.07
2019-02-09T03:58:23.241Z,99115.27
2019-02-09T04:00:55.440Z,99112.61
2019-02-09T04:03:26.178Z,99111.07
2019-02-09T04:05:57.238Z,99111.81
2019-02-09T04:08:27.348Z,99103.73
2019-02-09T04:10:57.436Z,99103.36
2019-02-09T04:13:27.552Z,99101.08
2019-02-09T04:15:57.655Z,99098.63
2019-02-09T04:18:28.078Z,99093.70
2019-02-09T04:20:58.195Z,99087.64
2019-02-09T04:23:28.328Z,99094.08
2019-02-09T04:25:58.514Z,99084.89
2019-02-09T04:28:28.615Z,99083.07
2019-02-09T04:31:06.149Z,99072.93
2019-02-09T04:33:30.635Z,99074.36
2019-02-09T04:36:00.738Z,99069.69
2019-02-09T04:38:30.846Z,99066.29
2019-02-09T04:41:01.034Z,99056.30
2019-02-09T04:43:31.123Z,99056.52
2019-02-09T04:46:01.252Z,99056.78
2019-02-09T04:48:31.374Z,99050.20
2019-02-09T04:51:01.537Z,99048.59
2019-02-09T04:53:32.264Z,99047.05
2019-02-09T04:56:02.374Z,99039.62
2019-02-09T04:58:32.554Z,99038.45
2019-02-09T05:01:02.659Z,99033.03
2019-02-09T05:03:32.802Z,99034.63
2019-02-09T05:06:02.936Z,99028.27
2019-02-09T05:08:33.074Z,99030.02
2019-02-09T05:11:03.263Z,99023.36
2019-02-09T05:13:33.372Z,99016.67
2019-02-09T05:16:03.497Z,99018.84
2019-02-09T05:18:33.683Z,99010.66
2019-02-09T05:21:03.803Z,99012.11
2019-02-09T05:23:33.914Z,99002.82
2019-02-09T05:26:04.028Z,99005.47
2019-02-09T05:28:34.174Z,98994.69
2019-02-09T05:31:04.272Z,98994.47
2019-02-09T05:33:34.384Z,98996.59
2019-02-09T05:36:04.709Z,98993.46
2019-02-09T05:38:34.877Z,98989.95
2019-02-09T05:41:04.986Z,98988.45
2019-02-09T05:43:35.124Z,98991.13
2019-02-09T05:46:06.031Z,98971.35
2019-02-09T05:48:36.131Z,98993.29
2019-02-09T05:51:07.711Z,98986.95
2019-02-09T05:53:37.825Z,98986.23
2019-02-09T05:56:08.232Z,98979.42
2019-02-09T05:58:38.348Z,98979.35
2019-02-09T06:01:08.461Z,98976.72
2019-02-09T06:03:40.256Z,98973.63
2019-02-09T06:06:10.394Z,98972.84
2019-02-09T06:08:40.501Z,98970.19
2019-02-09T06:11:10.721Z,98960.27
2019-02-09T06:13:40.823Z,98965.31
2019-02-09T06:16:10.919Z,98952.73
2019-02-09T06:18:41.205Z,98962.29
2019-02-09T06:21:11.343Z,98960.33
2019-02-09T06:23:41.441Z,98959.38
2019-02-09T06:26:11.540Z,98957.45
2019-02-09T06:28:41.795Z,98969.14
2019-02-09T06:31:11.964Z,98963.07
2019-02-09T06:33:42.069Z,98961.55
2019-02-09T06:36:13.626Z,98963.83
2019-02-09T06:38:43.758Z,98961.55
2019-02-09T06:41:13.858Z,98958.52
2019-02-09T06:43:43.971Z,98960.22
2019-02-09T06:46:15.905Z,98953.66
2019-02-09T06:48:46.227Z,98955.77
2019-02-09T06:51:16.346Z,98954.99
2019-02-09T06:53:46.497Z,98953.47
2019-02-09T06:56:16.615Z,98947.83
2019-02-09T06:58:46.774Z,98946.17
2019-02-09T07:01:17.272Z,98947.50
2019-02-09T07:03:47.406Z,98937.03
2019-02-09T07:06:18.727Z,98936.66
2019-02-09T07:08:48.846Z,98929.87
2019-02-09T07:11:19.048Z,98925.30
2019-02-09T07:13:49.149Z,98929.54
2019-02-09T07:16:19.303Z,98915.96
2019-02-09T07:18:49.421Z,98917.58
2019-02-09T07:21:19.545Z,98918.25
2019-02-09T07:23:49.673Z,98907.83
2019-02-09T07:26:19.782Z,98903.60
2019-02-09T07:28:49.893Z,98907.73
2019-02-09T07:31:20.001Z,98906.11
2019-02-09T07:33:50.120Z,98904.56
2019-02-09T07:36:20.242Z,98897.55
2019-02-09T07:38:50.391Z,98898.84
2019-02-09T07:41:20.504Z,98893.79
2019-02-09T07:43:51.489Z,98898.29
2019-02-09T07:46:21.642Z,98893.94
2019-02-09T07:48:52.017Z,98889.34
2019-02-09T07:51:22.381Z,98887.42
2019-02-09T07:53:52.520Z,98880.75
2019-02-09T07:56:22.619Z,98884.42
2019-02-09T07:58:52.835Z,98876.66
2019-02-09T08:01:22.938Z,98878.37
2019-02-09T08:03:53.136Z,98872.05
2019-02-09T08:06:23.254Z,98873.57
2019-02-09T08:08:53.370Z,98867.30
2019-02-09T08:11:23.487Z,98868.40
2019-02-09T08:13:53.592Z,98865.88
2019-02-09T08:16:23.702Z,98863.37
2019-02-09T08:18:53.952Z,98859.66
2019-02-09T08:21:24.139Z,98856.52
2019-02-09T08:23:54.333Z,98857.83
2019-02-09T08:26:25.512Z,98854.41
2019-02-09T08:28:55.629Z,98854.33
2019-02-09T08:31:25.849Z,98853.95
2019-02-09T08:33:55.991Z,98857.06
2019-02-09T08:36:27.196Z,98855.39
2019-02-09T08:38:57.329Z,98852.38
2019-02-09T08:41:27.442Z,98844.69
2019-02-09T08:43:57.578Z,98848.90
2019-02-09T08:46:27.712Z,98847.23
2019-02-09T08:48:57.995Z,98842.64
2019-02-09T08:51:28.105Z,98837.19
2019-02-09T08:53:58.297Z,98842.92
2019-02-09T08:56:28.494Z,98834.81
2019-02-09T08:58:58.617Z,98837.97
2019-02-09T09:01:28.726Z,98835.77
2019-02-09T09:03:58.824Z,98832.27
2019-02-09T09:06:29.027Z,98836.64
2019-02-09T09:08:59.157Z,98830.07
2019-02-09T09:11:29.303Z,98836.53
2019-02-09T09:13:59.413Z,98833.25
2019-02-09T09:16:29.535Z,98825.73
2019-02-09T09:18:59.715Z,98824.13
2019-02-09T09:21:29.832Z,98824.27
2019-02-09T09:24:00.081Z,98827.94
2019-02-09T09:26:30.599Z,98824.55
2019-02-09T09:29:00.726Z,98831.05
2019-02-09T09:31:32.443Z,98829.36
2019-02-09T09:34:02.753Z,98819.19
2019-02-09T09:36:32.863Z,98823.69
2019-02-09T09:39:03.848Z,98826.20
2019-02-09T09:41:34.176Z,98822.70
2019-02-09T09:44:04.488Z,98817.72
2019-02-09T09:46:34.665Z,98817.41
2019-02-09T09:49:04.845Z,98814.22
2019-02-09T09:51:35.348Z,98806.27
2019-02-09T09:54:05.765Z,98806.78
2019-02-09T09:56:35.867Z,98802.80
2019-02-09T09:59:06.012Z,98805.52
2019-02-09T10:01:36.954Z,98799.73
2019-02-09T10:04:07.319Z,98799.03
2019-02-09T10:06:37.772Z,98793.97
2019-02-09T10:09:08.882Z,98792.62
2019-02-09T10:11:39.096Z,98792.06
2019-02-09T10:14:09.276Z,98790.96
2019-02-09T10:16:39.387Z,98794.42
2019-02-09T10:19:09.677Z,98794.23
2019-02-09T10:21:39.803Z,98793.39
2019-02-09T10:24:09.927Z,98794.13
2019-02-09T10:26:40.076Z,98792.14
2019-02-09T10:29:10.190Z,98798.09
2019-02-09T10:31:40.348Z,98790.34
2019-02-09T10:34:10.474Z,98784.53
2019-02-09T10:36:41.906Z,98776.21
2019-02-09T10:39:13.125Z,98775.65
2019-02-09T10:41:43.515Z,98777.04
2019-02-09T10:44:13.629Z,98785.16
2019-02-09T10:46:44.133Z,98783.47
2019-02-09T10:49:15.255Z,98772.79
2019-02-09T10:51:45.409Z,98770.99
2019-02-09T10:54:15.500Z,98774.73
2019-02-09T10:56:45.713Z,98770.77
2019-02-09T10:59:15.843Z,98773.45
2019-02-09T11:01:46.131Z,98771.53
2019-02-09T11:04:16.852Z,98768.52
2019-02-09T11:06:47.189Z,98767.62
2019-02-09T11:09:21.599Z,98768.52
2019-02-09T11:11:51.814Z,98763.85
2019-02-09T11:14:22.082Z,98762.04
2019-02-09T11:16:52.265Z,98764.72
2019-02-09T11:19:22.532Z,98759.05
2019-02-09T11:21:52.635Z,98761.95
2019-02-09T11:24:22.846Z,98759.67
2019-02-09T11:26:52.967Z,98755.19
2019-02-09T11:29:23.425Z,98756.99
2019-02-09T11:31:53.585Z,98753.85
2019-02-09T11:34:23.688Z,98752.52
2019-02-09T11:36:53.829Z,98757.84
2019-02-09T11:39:26.907Z,98757.97
2019-02-09T11:41:57.004Z,98753.50
2019-02-09T11:44:27.173Z,98753.48
2019-02-09T11:46:57.291Z,98755.06
2019-02-09T11:49:27.454Z,98744.80
2019-02-09T11:51:57.908Z,98749.27
2019-02-09T11:54:28.030Z,98750.34
2019-02-09T11:56:58.133Z,98743.34
2019-02-09T11:59:28.372Z,98742.27
2019-02-09T12:01:58.466Z,98736.02
2019-02-09T12:04:28.610Z,98747.38
2019-02-09T12:06:58.689Z,98741.34
2019-02-09T12:09:28.786Z,98733.92
2019-02-09T12:11:58.904Z,98736.33
2019-02-09T12:14:29.004Z,98729.45
2019-02-09T12:16:59.120Z,98731.14
2019-02-09T12:19:29.337Z,98729.93
2019-02-09T12:21:59.449Z,98722.06
2019-02-09T12:24:29.566Z,98726.55
2019-02-09T12:26:59.636Z,98731.01
2019-02-09T12:29:29.739Z,98737.41
2019-02-09T12:31:59.883Z,98732.22
2019-02-09T12:34:30.048Z,98732.70
2019-02-09T12:37:00.215Z,98729.44
2019-02-09T12:39:30.365Z,98729.31
2019-02-09T12:42:00.448Z,98703.15
2019-02-09T12:44:30.562Z,98727.13
2019-02-09T12:47:00.724Z,98727.61
2019-02-09T12:49:30.843Z,98720.55
2019-02-09T12:52:00.955Z,98717.66
2019-02-09T12:54:31.171Z,98714.52
2019-02-09T12:57:01.301Z,98715.36
2019-02-09T12:59:31.480Z,98714.26
2019-02-09T13:02:01.616Z,98712.93
2019-02-09T13:04:31.705Z,98716.20
2019-02-09T13:07:01.818Z,98711.73
2019-02-09T13:09:31.919Z,98715.12
2019-02-09T13:12:02.523Z,98714.08
2019-02-09T13:14:32.744Z,98714.08
2019-02-09T13:17:03.304Z,98710.09
2019-02-09T13:19:33.442Z,98711.66
2019-02-09T13:22:03.652Z,98702.73
2019-02-09T13:24:33.753Z,98699.95
2019-02-09T13:27:04.677Z,98698.75
2019-02-09T13:29:34.913Z,98693.67
2019-02-09T13:32:05.343Z,98699.23
2019-02-09T13:34:35.565Z,98693.06
2019-02-09T13:37:05.746Z,98697.91
2019-02-09T13:39:36.013Z,98692.14
2019-02-09T13:42:06.135Z,98690.20
2019-02-09T13:44:36.242Z,98689.92
2019-02-09T13:47:06.351Z,98684.00
2019-02-09T13:49:36.469Z,98681.94
2019-02-09T13:52:06.656Z,98685.81
2019-02-09T13:54:36.806Z,98682.30
2019-02-09T13:57:06.921Z,98679.89
2019-02-09T13:59:37.057Z,98683.55
2019-02-09T14:02:07.239Z,98677.14
2019-02-09T14:04:37.368Z,98681.13
2019-02-09T14:07:07.624Z,98682.45
2019-02-09T14:09:37.728Z,98687.30
2019-02-09T14:12:07.844Z,98682.09
2019-02-09T14:14:38.026Z,98682.23
2019-02-09T14:17:08.245Z,98674.36
2019-02-09T14:19:38.401Z,98672.54
2019-02-09T14:22:08.502Z,98679.67
2019-02-09T14:24:38.603Z,98681.86
2019-02-09T14:27:08.791Z,98671.83
2019-02-09T14:29:38.891Z,98531.39
2019-02-09T14:32:09.054Z,98683.33
2019-02-09T14:34:39.233Z,98669.53
2019-02-09T14:37:09.335Z,98662.52
2019-02-09T14:39:39.447Z,98658.52
2019-02-09T14:42:09.558Z,98667.23
2019-02-09T14:44:39.664Z,98664.67
2019-02-09T14:47:09.744Z,98665.78
2019-02-09T14:49:39.855Z,98670.73
2019-02-09T14:52:09.997Z,98668.31
2019-02-09T14:54:40.121Z,98663.72
2019-02-09T14:57:10.223Z,98661.78
2019-02-09T14:59:40.337Z,98661.19
2019-02-09T15:02:12.408Z,98658.38
2019-02-09T15:04:42.583Z,98655.00
2019-02-09T15:07:13.784Z,98653.91
2019-02-09T15:09:43.937Z,98652.94
2019-02-09T15:12:14.083Z,98648.83
2019-02-09T15:14:44.361Z,98645.69
2019-02-09T15:17:14.422Z,98645.69
2019-02-09T15:19:44.603Z,98651.73
2019-02-09T15:22:14.705Z,98649.88
2019-02-09T15:24:44.827Z,98645.65
2019-02-09T15:27:14.937Z,98650.84
2019-02-09T15:29:45.065Z,98650.23
2019-02-09T15:32:15.210Z,98655.67
2019-02-09T15:34:45.329Z,98651.45
2019-02-09T15:37:15.448Z,98649.14
2019-02-09T15:39:45.534Z,98647.33
2019-02-09T15:42:16.154Z,98654.22
2019-02-09T15:44:46.368Z,98645.53
2019-02-09T15:47:16.451Z,98651.45
2019-02-09T15:49:46.604Z,98653.73
2019-02-09T15:52:16.690Z,98648.55
2019-02-09T15:54:46.787Z,98652.77
2019-02-09T15:57:16.891Z,98648.36
2019-02-09T15:59:47.000Z,98646.53
2019-02-09T16:02:17.102Z,98644.73
2019-02-09T16:04:47.206Z,98646.06
2019-02-09T16:07:17.303Z,98638.20
2019-02-09T16:09:47.426Z,98646.91
2019-02-09T16:12:17.547Z,98639.42
2019-02-09T16:14:47.661Z,98650.34
2019-02-09T16:17:17.805Z,98655.95
2019-02-09T16:19:47.965Z,98655.47
2019-02-09T16:22:18.085Z,98651.73
2019-02-09T16:24:48.241Z,98650.24
2019-02-09T16:27:18.326Z,98654.97
2019-02-09T16:29:48.455Z,98660.57
2019-02-09T16:32:18.618Z,98654.11
2019-02-09T16:34:48.745Z,98660.16
2019-02-09T16:37:18.847Z,98662.11
2019-02-09T16:39:48.967Z,98659.31
2019-02-09T16:42:19.077Z,98660.53
2019-02-09T16:44:49.167Z,98666.67
2019-02-09T16:47:19.267Z,98658.87
2019-02-09T16:49:49.545Z,98665.31
2019-02-09T16:52:19.647Z,98657.06
2019-02-09T16:54:49.813Z,98662.47
2019-02-09T16:57:24.459Z,98660.80
2019-02-09T16:59:55.148Z,98664.30
2019-02-09T17:02:25.251Z,98666.95
2019-02-09T17:04:55.401Z,98664.98
2019-02-09T17:07:25.524Z,98655.01
2019-02-09T17:09:55.641Z,98645.28
2019-02-09T17:12:25.824Z,98645.03
2019-02-09T17:14:55.919Z,98648.67
2019-02-09T17:17:26.015Z,98637.56
2019-02-09T17:19:56.177Z,98643.48
2019-02-09T17:22:26.291Z,98641.08
2019-02-09T17:24:56.413Z,98641.81
2019-02-09T17:27:26.958Z,98640.12
2019-02-09T17:29:57.106Z,98634.91
2019-02-09T17:32:34.753Z,98628.27
2019-02-09T17:35:07.351Z,98627.79
2019-02-09T17:37:37.845Z,98628.81
2019-02-09T17:40:10.217Z,98628.56
2019-02-09T17:42:41.952Z,98622.04
2019-02-09T17:45:34.627Z,98623.57
2019-02-09T17:48:06.935Z,98631.14
2019-02-09T17:50:38.984Z,98623.30
2019-02-09T17:53:09.089Z,98631.37
2019-02-09T17:55:39.205Z,98625.08
2019-02-09T17:58:10.900Z,98618.44
2019-02-09T18:01:06.554Z,98621.23
2019-02-09T18:03:39.437Z,98622.00
2019-02-09T18:06:14.811Z,98613.45
2019-02-09T18:08:44.913Z,98608.84
2019-02-09T18:11:15.025Z,98613.89
2019-02-09T18:13:45.126Z,98608.42
2019-02-09T18:16:15.241Z,98603.97
2019-02-09T18:18:45.338Z,98598.48
2019-02-09T18:21:15.515Z,98600.13
2019-02-09T18:23:45.719Z,98589.52
2019-02-09T18:26:15.790Z,98592.45
2019-02-09T18:28:46.179Z,98583.03
2019-02-09T18:31:16.290Z,98591.91
2019-02-09T18:33:46.458Z,98579.55
2019-02-09T18:36:16.569Z,98576.11
2019-02-09T18:38:49.177Z,98571.45
2019-02-09T18:41:19.306Z,98573.50
2019-02-09T18:43:49.411Z,98566.88
2019-02-09T18:46:19.535Z,98565.09
2019-02-09T18:48:49.630Z,98557.70
2019-02-09T18:51:19.767Z,98555.66
2019-02-09T18:53:49.873Z,98547.11
2019-02-09T18:56:20.009Z,98538.90
2019-02-09T18:58:50.117Z,98548.69
2019-02-09T19:01:20.370Z,98543.27
2019-02-09T19:03:50.586Z,98541.09
2019-02-09T19:06:20.689Z,98536.05
2019-02-09T19:08:50.789Z,98533.38
2019-02-09T19:11:20.983Z,98528.44
2019-02-09T19:13:51.099Z,98521.81
2019-02-09T19:16:21.441Z,98519.08
2019-02-09T19:18:51.610Z,98524.15
2019-02-09T19:21:21.778Z,98526.88
2019-02-09T19:23:51.887Z,98518.61
2019-02-09T19:26:21.969Z,98519.34
2019-02-09T19:28:52.065Z,98510.15
2019-02-09T19:31:22.186Z,98513.91
2019-02-09T19:33:53.332Z,98507.64
2019-02-09T19:36:23.462Z,98510.99
2019-02-09T19:38:53.569Z,98501.77
2019-02-09T19:41:23.687Z,98500.37
2019-02-09T19:43:53.783Z,98493.39
2019-02-09T19:46:23.994Z,98495.27
2019-02-09T19:48:54.087Z,98490.30
2019-02-09T19:51:24.181Z,98488.27
2019-02-09T19:53:54.356Z,98486.39
2019-02-09T19:56:24.449Z,98489.53
2019-02-09T19:58:54.645Z,98480.59
2019-02-09T20:01:24.735Z,98483.45
2019-02-09T20:03:54.847Z,98478.02
2019-02-09T20:06:25.001Z,98471.67
2019-02-09T20:08:55.083Z,98468.02
2019-02-09T20:11:25.180Z,98460.17
2019-02-09T20:13:55.305Z,98463.42
2019-02-09T20:16:25.430Z,98463.06
2019-02-09T20:18:56.523Z,98463.35
2019-02-09T20:21:26.717Z,98464.07
2019-02-09T20:23:56.816Z,98457.07
2019-02-09T20:26:27.921Z,98453.58
2019-02-09T20:28:59.071Z,98442.72
2019-02-09T20:31:29.269Z,98437.17
2019-02-09T20:33:59.978Z,98274.92
2019-02-09T20:36:30.143Z,98440.07
2019-02-09T20:39:04.610Z,98428.12
2019-02-09T20:41:33.733Z,98428.12
2019-02-09T20:44:04.084Z,98420.16
2019-02-09T20:46:34.319Z,98418.47
2019-02-09T20:49:04.555Z,98409.91
2019-02-09T20:51:34.673Z,98408.82
2019-02-09T20:54:05.219Z,98398.45
2019-02-09T20:56:35.700Z,98398.30
2019-02-09T20:59:05.938Z,98391.21
2019-02-09T21:01:36.249Z,98381.44
2019-02-09T21:04:06.539Z,98379.39
2019-02-09T21:06:36.647Z,98368.38
2019-02-09T21:09:08.850Z,98362.62
2019-02-09T21:11:38.950Z,98362.73
2019-02-09T21:14:09.097Z,98358.64
2019-02-09T21:16:39.184Z,98353.69
2019-02-09T21:19:09.438Z,98358.26
2019-02-09T21:21:39.599Z,98342.47
2019-02-09T21:24:09.742Z,98342.21
2019-02-09T21:26:39.839Z,98334.95
2019-02-09T21:29:09.954Z,98331.12
2019-02-09T21:31:40.052Z,98327.14
2019-02-09T21:34:10.330Z,98337.74
2019-02-09T21:36:40.543Z,98325.80
2019-02-09T21:39:10.914Z,98325.66
2019-02-09T21:41:41.290Z,98326.52
2019-02-09T21:44:11.576Z,98329.79
2019-02-09T21:46:41.680Z,98323.86
2019-02-09T21:49:11.800Z,98322.91
2019-02-09T21:51:41.907Z,98318.42
2019-02-09T21:54:12.027Z,98317.83
2019-02-09T21:56:42.116Z,98314.89
2019-02-09T21:59:12.312Z,98314.05
2019-02-09T22:01:42.378Z,98309.27
2019-02-09T22:04:12.491Z,98307.56
2019-02-09T22:06:42.616Z,98305.02
2019-02-09T22:09:12.842Z,98309.63
2019-02-09T22:11:43.073Z,98297.53
2019-02-09T22:14:13.528Z,98299.20
2019-02-09T22:16:44.182Z,98298.36
2019-02-09T22:19:14.414Z,98297.77
2019-02-09T22:21:44.999Z,98296.19
2019-02-09T22:24:15.498Z,98301.61
2019-02-09T22:26:45.597Z,98296.91
2019-02-09T22:29:16.815Z,98295.56
2019-02-09T22:31:46.965Z,98296.54
2019-02-09T22:34:17.074Z,98295.56
2019-02-09T22:36:47.337Z,98286.77
2019-02-09T22:39:17.476Z,98285.06
2019-02-09T22:41:49.258Z,98285.71
2019-02-09T22:44:19.777Z,98280.73
2019-02-09T22:46:50.853Z,98279.49
2019-02-09T22:49:20.950Z,98284.94
2019-02-09T22:51:51.169Z,98291.59
2019-02-09T22:54:21.383Z,98288.45
2019-02-09T22:56:51.738Z,98287.82
2019-02-09T22:59:21.929Z,98290.25
2019-02-09T23:01:52.415Z,98282.86
2019-02-09T23:04:53.491Z,98290.38
2019-02-09T23:07:34.538Z,98282.16
2019-02-09T23:10:13.656Z,98285.77
2019-02-09T23:12:48.637Z,98291.69
2019-02-09T23:15:15.702Z,98293.88
2019-02-09T23:17:45.857Z,98293.75
2019-02-09T23:20:15.951Z,98289.41
2019-02-09T23:22:46.066Z,98291.09
2019-02-09T23:25:16.163Z,98289.41
2019-02-09T23:27:46.327Z,98281.80
2019-02-09T23:30:16.538Z,98282.36
2019-02-09T23:32:46.647Z,98280.32
2019-02-09T23:35:16.763Z,98277.66
2019-02-09T23:37:46.873Z,98273.66
2019-02-09T23:40:17.003Z,98275.80
2019-02-09T23:42:47.117Z,98274.92
2019-02-09T23:45:17.223Z,98277.33
2019-02-09T23:47:48.153Z,98278.66
2019-02-09T23:50:18.279Z,98286.59
2019-02-09T23:52:48.422Z,98277.97
2019-02-09T23:55:18.509Z,98274.30
2019-02-09T23:57:49.081Z,98281.47
